createdAt,value
2023-03-02T00:00:00.716Z,14.00
2023-03-02T00:02:29.260Z,13.03
2023-03-02T00:04:58.211Z,14.60
2023-03-02T00:07:31.811Z,14.17
2023-03-02T00:09:59.395Z,15.73
2023-03-02T00:12:31.033Z,14.93
2023-03-02T00:14:58.336Z,14.97
2023-03-02T00:17:27.328Z,14.80
2023-03-02T00:19:55.503Z,13.93
2023-03-02T00:22:22.850Z,13.80
2023-03-02T00:24:50.189Z,13.90
2023-03-02T00:27:17.457Z,13.93
2023-03-02T00:29:45.734Z,14.07
2023-03-02T00:32:14.792Z,12.90
2023-03-02T00:34:42.229Z,15.57
2023-03-02T00:37:09.568Z,15.30
2023-03-02T00:39:36.913Z,14.17
2023-03-02T00:42:04.237Z,14.37
2023-03-02T00:44:31.720Z,13.30
2023-03-02T00:46:59.031Z,14.00
2023-03-02T00:49:26.710Z,14.20
2023-03-02T00:51:54.137Z,13.77
2023-03-02T00:54:21.432Z,15.97
2023-03-02T00:56:48.695Z,13.90
2023-03-02T00:59:28.239Z,14.47
2023-03-02T01:01:57.822Z,14.70
2023-03-02T01:04:27.661Z,13.97
2023-03-02T01:06:54.915Z,14.40
2023-03-02T01:09:22.420Z,13.10
2023-03-02T01:11:49.681Z,14.97
2023-03-02T01:14:17.346Z,15.30
2023-03-02T01:16:44.911Z,15.07
2023-03-02T01:19:12.176Z,14.20
2023-03-02T01:21:39.439Z,13.40
2023-03-02T01:24:06.962Z,13.87
2023-03-02T01:26:34.671Z,14.37
2023-03-02T01:29:02.308Z,13.73
2023-03-02T01:31:29.720Z,13.90
2023-03-02T01:33:57.160Z,13.40
2023-03-02T01:36:24.552Z,13.00
2023-03-02T01:38:53.911Z,15.00
2023-03-02T01:41:21.414Z,14.40
2023-03-02T01:43:48.855Z,15.63
2023-03-02T01:46:29.086Z,15.07
2023-03-02T01:48:58.011Z,14.20
2023-03-02T01:51:26.353Z,13.60
2023-03-02T01:53:55.588Z,14.00
2023-03-02T01:56:25.308Z,14.10
2023-03-02T01:58:54.183Z,15.20
2023-03-02T02:01:22.282Z,13.97
2023-03-02T02:03:51.114Z,14.13
2023-03-02T02:06:20.076Z,15.00
2023-03-02T02:08:47.869Z,15.60
2023-03-02T02:11:15.406Z,15.70
2023-03-02T02:13:43.420Z,15.27
2023-03-02T02:16:10.784Z,14.43
2023-03-02T02:18:39.058Z,14.27
2023-03-02T02:21:07.078Z,16.77
2023-03-02T02:23:35.963Z,14.77
2023-03-02T02:26:05.275Z,13.43
2023-03-02T02:28:34.129Z,14.63
2023-03-02T02:31:05.892Z,15.73
2023-03-02T02:33:34.550Z,14.43
2023-03-02T02:36:03.391Z,14.27
2023-03-02T02:38:31.405Z,15.70
2023-03-02T02:41:00.281Z,15.27
2023-03-02T02:43:28.282Z,16.43
2023-03-02T02:45:57.110Z,14.80
2023-03-02T02:48:26.763Z,15.40
2023-03-02T02:50:56.196Z,13.97
2023-03-02T02:53:24.989Z,15.30
2023-03-02T02:55:53.900Z,14.90
2023-03-02T02:58:22.758Z,15.77
2023-03-02T03:00:50.274Z,15.20
2023-03-02T03:03:23.427Z,16.27
2023-03-02T03:05:50.695Z,15.60
2023-03-02T03:08:19.585Z,15.00
2023-03-02T03:10:47.140Z,15.10
2023-03-02T03:13:14.445Z,15.17
2023-03-02T03:15:41.788Z,14.57
2023-03-02T03:18:09.156Z,14.53
2023-03-02T03:20:36.501Z,14.93
2023-03-02T03:23:03.837Z,14.00
2023-03-02T03:25:31.939Z,15.47
2023-03-02T03:27:59.266Z,15.80
2023-03-02T03:30:26.526Z,14.50
2023-03-02T03:32:53.900Z,13.00
2023-03-02T03:35:21.213Z,15.00
2023-03-02T03:37:48.743Z,13.23
2023-03-02T03:40:16.068Z,14.47
2023-03-02T03:42:43.624Z,15.90
2023-03-02T03:45:11.315Z,13.80
2023-03-02T03:47:38.660Z,13.83
2023-03-02T03:50:06.327Z,15.10
2023-03-02T03:52:33.708Z,14.70
2023-03-02T03:55:02.154Z,14.77
2023-03-02T03:57:29.889Z,15.30
2023-03-02T03:59:57.259Z,14.90
2023-03-02T04:02:24.847Z,14.33
2023-03-02T04:04:52.219Z,14.07
2023-03-02T04:07:19.567Z,15.63
2023-03-02T04:09:46.895Z,15.43
2023-03-02T04:12:14.171Z,14.13
2023-03-02T04:14:41.510Z,13.53
2023-03-02T04:17:08.850Z,15.37
2023-03-02T04:19:37.170Z,13.50
2023-03-02T04:22:04.512Z,13.87
2023-03-02T04:24:31.928Z,14.30
2023-03-02T04:26:59.285Z,14.80
2023-03-02T04:29:26.619Z,14.77
2023-03-02T04:31:53.963Z,14.37
2023-03-02T04:34:21.398Z,14.80
2023-03-02T04:36:48.735Z,13.57
2023-03-02T04:39:17.150Z,14.37
2023-03-02T04:41:45.166Z,15.83
2023-03-02T04:44:12.754Z,13.57
2023-03-02T04:46:40.224Z,14.90
2023-03-02T04:49:07.585Z,15.53
2023-03-02T04:51:36.501Z,14.23
2023-03-02T04:54:05.564Z,15.23
2023-03-02T04:56:33.322Z,14.87
2023-03-02T04:59:01.045Z,14.37
2023-03-02T05:01:28.953Z,14.53
2023-03-02T05:03:56.638Z,15.23
2023-03-02T05:06:25.598Z,16.07
2023-03-02T05:08:53.569Z,15.97
2023-03-02T05:11:25.590Z,15.17
2023-03-02T05:13:54.708Z,14.30
2023-03-02T05:16:22.452Z,14.17
2023-03-02T05:18:49.814Z,15.20
2023-03-02T05:21:17.723Z,14.87
2023-03-02T05:23:45.607Z,16.00
2023-03-02T05:26:12.934Z,14.70
2023-03-02T05:28:40.533Z,15.00
2023-03-02T05:31:07.979Z,15.37
2023-03-02T05:33:35.280Z,14.23
2023-03-02T05:36:02.693Z,15.60
2023-03-02T05:38:31.537Z,14.17
2023-03-02T05:40:58.860Z,15.30
2023-03-02T05:43:26.158Z,14.90
2023-03-02T05:45:55.054Z,14.70
2023-03-02T05:48:22.345Z,14.57
2023-03-02T05:50:49.645Z,12.67
2023-03-02T05:53:16.939Z,14.20
2023-03-02T05:55:44.315Z,15.60
2023-03-02T05:58:14.219Z,15.47
2023-03-02T06:00:42.154Z,15.00
2023-03-02T06:03:09.578Z,15.37
2023-03-02T06:05:37.038Z,14.73
2023-03-02T06:08:04.697Z,15.37
2023-03-02T06:10:32.102Z,14.33
2023-03-02T06:12:59.370Z,14.47
2023-03-02T06:15:28.345Z,15.57
2023-03-02T06:17:56.273Z,14.23
2023-03-02T06:20:23.660Z,14.57
2023-03-02T06:22:51.181Z,13.30
2023-03-02T06:25:20.096Z,13.20
2023-03-02T06:27:49.522Z,15.17
2023-03-02T06:30:17.780Z,14.10
2023-03-02T06:32:45.795Z,14.40
2023-03-02T06:35:13.585Z,13.50
2023-03-02T06:37:43.961Z,14.30
2023-03-02T06:40:10.886Z,13.87
2023-03-02T06:42:39.228Z,15.00
2023-03-02T06:45:07.004Z,14.60
2023-03-02T06:47:34.353Z,15.97
2023-03-02T06:50:01.946Z,13.80
2023-03-02T06:52:29.433Z,14.90
2023-03-02T06:54:56.799Z,13.67
2023-03-02T06:57:24.156Z,14.50
2023-03-02T06:59:52.284Z,14.20
2023-03-02T07:02:19.627Z,16.20
2023-03-02T07:04:46.953Z,13.70
2023-03-02T07:07:14.215Z,13.67
2023-03-02T07:09:41.546Z,14.20
2023-03-02T07:12:08.930Z,15.30
2023-03-02T07:14:36.486Z,13.90
2023-03-02T07:17:05.405Z,13.80
2023-03-02T07:19:32.959Z,14.10
2023-03-02T07:22:00.385Z,13.47
2023-03-02T07:24:27.960Z,13.00
2023-03-02T07:26:55.235Z,13.80
2023-03-02T07:29:22.567Z,14.33
2023-03-02T07:31:51.498Z,13.37
2023-03-02T07:34:18.927Z,13.43
2023-03-02T07:36:46.263Z,12.70
2023-03-02T07:39:13.704Z,13.00
2023-03-02T07:41:41.160Z,12.20
2023-03-02T07:44:08.525Z,12.80
2023-03-02T07:46:35.900Z,11.73
2023-03-02T07:49:03.333Z,12.20
2023-03-02T07:51:30.819Z,12.53
2023-03-02T07:53:58.207Z,14.80
2023-03-02T07:56:25.550Z,12.70
2023-03-02T07:58:52.938Z,11.73
2023-03-02T08:01:20.356Z,12.60
2023-03-02T08:03:47.726Z,11.30
2023-03-02T08:06:15.088Z,12.27
2023-03-02T08:08:43.340Z,11.43
2023-03-02T08:11:12.336Z,13.50
2023-03-02T08:13:39.951Z,23.87
2023-03-02T08:16:08.494Z,13.07
2023-03-02T08:18:36.206Z,12.60
2023-03-02T08:21:04.119Z,12.33
2023-03-02T08:23:31.502Z,12.40
2023-03-02T08:25:58.904Z,16.73
2023-03-02T08:28:26.242Z,16.10
2023-03-02T08:30:57.075Z,13.23
2023-03-02T08:33:24.870Z,11.90
2023-03-02T08:35:56.882Z,13.60
2023-03-02T08:38:24.455Z,11.33
2023-03-02T08:40:52.345Z,12.80
2023-03-02T08:43:20.151Z,11.70
2023-03-02T08:45:49.086Z,11.43
2023-03-02T08:48:16.465Z,11.87
2023-03-02T08:50:43.818Z,11.97
2023-03-02T08:53:11.152Z,12.80
2023-03-02T08:55:38.484Z,11.27
2023-03-02T08:58:05.821Z,11.37
2023-03-02T09:00:33.180Z,10.60
2023-03-02T09:03:02.155Z,11.50
2023-03-02T09:05:29.501Z,11.20
2023-03-02T09:07:56.834Z,11.30
2023-03-02T09:10:24.185Z,11.30
2023-03-02T09:12:51.524Z,12.17
2023-03-02T09:15:18.942Z,10.80
2023-03-02T09:17:46.274Z,10.83
2023-03-02T09:20:14.242Z,9.93
2023-03-02T09:22:43.149Z,12.90
2023-03-02T09:25:10.478Z,11.30
2023-03-02T09:27:37.776Z,12.03
2023-03-02T09:30:05.207Z,12.47
2023-03-02T09:32:32.673Z,12.00
2023-03-02T09:35:00.933Z,11.47
2023-03-02T09:37:28.726Z,10.93
2023-03-02T09:39:56.162Z,12.50
2023-03-02T09:42:41.596Z,10.33
2023-03-02T09:45:01.416Z,11.50
2023-03-02T09:47:35.887Z,11.10
2023-03-02T09:50:00.966Z,11.17
2023-03-02T09:52:35.784Z,12.33
2023-03-02T09:55:04.633Z,11.43
2023-03-02T09:57:38.311Z,11.83
2023-03-02T10:00:18.778Z,11.57
2023-03-02T10:02:38.011Z,11.23
2023-03-02T10:05:06.942Z,10.97
2023-03-02T10:07:36.110Z,11.90
2023-03-02T10:10:10.960Z,11.87
2023-03-02T10:12:45.619Z,12.03
2023-03-02T10:15:17.408Z,11.70
2023-03-02T10:17:53.997Z,11.17
2023-03-02T10:20:34.074Z,10.20
2023-03-02T10:22:59.303Z,10.13
2023-03-02T10:25:28.185Z,10.53
2023-03-02T10:27:59.909Z,11.33
2023-03-02T10:30:37.661Z,11.50
2023-03-02T10:33:06.572Z,9.70
2023-03-02T10:35:34.597Z,10.20
2023-03-02T10:38:06.669Z,11.30
2023-03-02T10:40:44.502Z,10.27
2023-03-02T10:43:16.480Z,10.87
2023-03-02T10:45:43.906Z,9.80
2023-03-02T10:48:12.757Z,10.60
2023-03-02T10:50:40.087Z,10.10
2023-03-02T10:53:08.599Z,10.30
2023-03-02T10:55:35.940Z,10.00
2023-03-02T10:58:07.402Z,10.37
2023-03-02T11:00:35.361Z,10.37
2023-03-02T11:03:04.374Z,9.80
2023-03-02T11:05:36.009Z,9.67
2023-03-02T11:08:04.883Z,9.33
2023-03-02T11:10:36.703Z,9.93
2023-03-02T11:13:05.596Z,9.43
2023-03-02T11:15:34.469Z,10.57
2023-03-02T11:18:06.045Z,10.43
2023-03-02T11:20:34.902Z,8.83
2023-03-02T11:23:03.781Z,9.67
2023-03-02T11:25:35.466Z,10.30
2023-03-02T11:28:05.555Z,9.47
2023-03-02T11:30:34.674Z,9.90
2023-03-02T11:33:06.489Z,10.07
2023-03-02T11:35:35.494Z,9.43
2023-03-02T11:38:04.339Z,9.97
2023-03-02T11:40:33.127Z,8.83
2023-03-02T11:43:01.388Z,9.87
2023-03-02T11:45:33.318Z,9.03
2023-03-02T11:48:04.916Z,7.97
2023-03-02T11:50:36.482Z,8.60
2023-03-02T11:53:08.318Z,7.77
2023-03-02T11:55:37.186Z,8.87
2023-03-02T11:58:05.396Z,8.03
2023-03-02T12:00:34.272Z,7.90
2023-03-02T12:03:03.152Z,8.33
2023-03-02T12:05:32.336Z,9.07
2023-03-02T12:08:04.074Z,8.97
2023-03-02T12:10:32.943Z,7.97
2023-03-02T12:13:01.831Z,8.10
2023-03-02T12:15:36.976Z,7.83
2023-03-02T12:18:05.837Z,8.37
2023-03-02T12:20:33.625Z,8.03
2023-03-02T12:23:07.949Z,7.57
2023-03-02T12:25:39.901Z,7.10
2023-03-02T12:28:08.780Z,8.13
2023-03-02T12:30:36.453Z,9.97
2023-03-02T12:33:17.539Z,7.77
2023-03-02T12:35:45.318Z,7.40
2023-03-02T12:38:31.119Z,7.20
2023-03-02T12:41:09.974Z,7.50
2023-03-02T12:43:38.448Z,8.30
2023-03-02T12:46:10.311Z,7.47
2023-03-02T12:48:51.746Z,7.97
2023-03-02T12:51:22.072Z,7.20
2023-03-02T12:53:50.359Z,9.57
2023-03-02T12:56:23.935Z,10.33
2023-03-02T12:58:51.952Z,7.70
2023-03-02T13:01:23.528Z,7.70
2023-03-02T13:03:51.886Z,7.00
2023-03-02T13:06:20.680Z,9.90
2023-03-02T13:08:49.556Z,7.70
2023-03-02T13:11:18.459Z,9.77
2023-03-02T13:13:46.100Z,6.80
2023-03-02T13:16:27.104Z,8.20
2023-03-02T13:18:56.821Z,9.37
2023-03-02T13:21:32.306Z,8.80
2023-03-02T13:24:00.207Z,8.33
2023-03-02T13:26:35.564Z,9.30
2023-03-02T13:29:04.689Z,8.30
2023-03-02T13:31:32.495Z,9.77
2023-03-02T13:33:59.982Z,8.17
2023-03-02T13:36:28.966Z,9.60
2023-03-02T13:38:57.583Z,9.40
2023-03-02T13:41:26.519Z,8.50
2023-03-02T13:43:54.232Z,8.60
2023-03-02T13:46:23.240Z,8.40
2023-03-02T13:49:04.003Z,8.93
2023-03-02T13:51:25.762Z,9.10
2023-03-02T13:53:57.584Z,8.17
2023-03-02T13:56:29.250Z,8.87
2023-03-02T13:58:56.658Z,8.13
2023-03-02T14:01:24.476Z,9.63
2023-03-02T14:03:51.826Z,9.50
2023-03-02T14:06:19.342Z,8.30
2023-03-02T14:08:46.973Z,8.50
2023-03-02T14:11:15.669Z,8.83
2023-03-02T14:13:46.843Z,10.10
2023-03-02T14:16:15.495Z,8.10
2023-03-02T14:18:47.117Z,8.87
2023-03-02T14:21:15.673Z,8.83
2023-03-02T14:23:43.143Z,7.73
2023-03-02T14:26:30.310Z,8.80
2023-03-02T14:29:05.498Z,9.23
2023-03-02T14:31:27.408Z,8.87
2023-03-02T14:33:54.783Z,10.60
2023-03-02T14:36:23.648Z,11.00
2023-03-02T14:38:51.132Z,8.87
2023-03-02T14:41:20.079Z,10.10
2023-03-02T14:43:47.405Z,9.13
2023-03-02T14:46:14.736Z,7.73
2023-03-02T14:48:42.028Z,9.40
2023-03-02T14:51:22.781Z,8.30
2023-03-02T14:53:50.971Z,9.03
2023-03-02T14:56:19.578Z,9.40
2023-03-02T14:58:47.202Z,8.87
2023-03-02T15:01:14.638Z,8.40
2023-03-02T15:03:42.030Z,8.47
2023-03-02T15:06:26.729Z,8.73
2023-03-02T15:08:55.593Z,8.87
2023-03-02T15:11:23.253Z,8.90
2023-03-02T15:13:50.750Z,9.20
2023-03-02T15:16:18.369Z,9.30
2023-03-02T15:18:45.728Z,9.00
2023-03-02T15:21:14.600Z,8.50
2023-03-02T15:23:41.932Z,9.37
2023-03-02T15:26:10.197Z,9.20
2023-03-02T15:28:37.592Z,9.27
2023-03-02T15:31:09.223Z,10.03
2023-03-02T15:33:36.990Z,9.30
2023-03-02T15:36:06.110Z,9.80
2023-03-02T15:38:35.461Z,9.47
2023-03-02T15:41:06.657Z,8.93
2023-03-02T15:43:35.551Z,8.67
2023-03-02T15:46:02.894Z,10.43
2023-03-02T15:48:30.654Z,9.03
2023-03-02T15:51:02.190Z,8.63
2023-03-02T15:53:30.622Z,9.27
2023-03-02T15:55:57.950Z,8.73
2023-03-02T15:58:25.281Z,8.50
2023-03-02T16:00:56.878Z,8.50
2023-03-02T16:03:24.554Z,8.23
2023-03-02T16:05:51.974Z,8.30
2023-03-02T16:08:19.383Z,8.37
2023-03-02T16:10:48.280Z,7.70
2023-03-02T16:13:15.649Z,8.17
2023-03-02T16:15:42.916Z,7.33
2023-03-02T16:18:10.621Z,8.00
2023-03-02T16:20:38.815Z,7.20
2023-03-02T16:23:07.886Z,7.63
2023-03-02T16:25:36.403Z,7.80
2023-03-02T16:28:03.942Z,7.20
2023-03-02T16:30:31.630Z,7.30
2023-03-02T16:33:00.009Z,6.70
2023-03-02T16:35:27.920Z,7.27
2023-03-02T16:37:55.687Z,6.30
2023-03-02T16:40:23.628Z,6.03
2023-03-02T16:42:53.779Z,6.77
2023-03-02T16:45:21.941Z,6.53
2023-03-02T16:47:49.305Z,6.23
2023-03-02T16:50:17.362Z,6.07
2023-03-02T16:52:44.905Z,6.67
2023-03-02T16:55:14.493Z,6.13
2023-03-02T16:57:42.204Z,5.93
2023-03-02T17:00:10.410Z,6.23
2023-03-02T17:02:37.700Z,5.47
2023-03-02T17:05:05.131Z,5.90
2023-03-02T17:07:32.445Z,5.70
2023-03-02T17:09:59.849Z,5.20
2023-03-02T17:12:27.206Z,4.87
2023-03-02T17:14:54.637Z,5.17
2023-03-02T17:17:22.124Z,6.10
2023-03-02T17:19:49.497Z,5.53
2023-03-02T17:22:17.288Z,5.43
2023-03-02T17:24:44.629Z,5.10
2023-03-02T17:27:24.052Z,5.17
2023-03-02T17:29:41.014Z,5.60
2023-03-02T17:32:08.297Z,5.83
2023-03-02T17:34:35.695Z,4.90
2023-03-02T17:37:03.007Z,5.43
2023-03-02T17:39:30.329Z,9.00
2023-03-02T17:41:57.693Z,24.23
2023-03-02T17:44:25.014Z,7.40
2023-03-02T17:46:52.363Z,6.07
2023-03-02T17:49:19.771Z,7.60
2023-03-02T17:51:47.125Z,6.27
2023-03-02T17:54:14.446Z,6.10
2023-03-02T17:56:41.869Z,7.60
2023-03-02T17:59:09.218Z,6.57
2023-03-02T18:01:36.559Z,6.10
2023-03-02T18:04:04.697Z,6.27
2023-03-02T18:06:32.064Z,5.93
2023-03-02T18:08:59.379Z,5.50
2023-03-02T18:11:28.407Z,4.93
2023-03-02T18:13:55.906Z,4.40
2023-03-02T18:16:23.768Z,5.40
2023-03-02T18:18:53.801Z,5.30
2023-03-02T18:21:20.822Z,4.60
2023-03-02T18:23:48.164Z,4.90
2023-03-02T18:26:15.682Z,5.40
2023-03-02T18:28:43.191Z,6.17
2023-03-02T18:31:12.021Z,5.37
2023-03-02T18:33:39.325Z,5.60
2023-03-02T18:36:06.756Z,5.40
2023-03-02T18:38:34.446Z,5.57
2023-03-02T18:41:03.327Z,5.33
2023-03-02T18:43:32.521Z,4.90
2023-03-02T18:46:00.250Z,5.23
2023-03-02T18:48:27.569Z,5.57
2023-03-02T18:50:55.630Z,4.90
2023-03-02T18:53:22.942Z,4.20
2023-03-02T18:55:51.928Z,5.27
2023-03-02T18:58:20.769Z,5.10
2023-03-02T19:00:48.617Z,5.33
2023-03-02T19:03:16.749Z,4.83
2023-03-02T19:05:44.584Z,5.30
2023-03-02T19:08:12.194Z,4.30
2023-03-02T19:10:42.076Z,5.33
2023-03-02T19:13:11.049Z,4.80
2023-03-02T19:15:40.154Z,4.73
2023-03-02T19:18:07.478Z,5.03
2023-03-02T19:20:34.875Z,5.50
2023-03-02T19:23:02.236Z,5.00
2023-03-02T19:25:29.795Z,4.93
2023-03-02T19:27:57.120Z,5.20
2023-03-02T19:30:25.664Z,5.33
2023-03-02T19:32:54.055Z,5.37
2023-03-02T19:35:25.710Z,4.43
2023-03-02T19:37:53.380Z,5.47
2023-03-02T19:40:22.310Z,5.17
2023-03-02T19:42:49.859Z,5.13
2023-03-02T19:45:18.781Z,5.10
2023-03-02T19:47:46.902Z,4.40
2023-03-02T19:50:15.771Z,4.80
2023-03-02T19:52:43.297Z,4.60
2023-03-02T19:55:12.178Z,5.77
2023-03-02T19:57:40.212Z,5.30
2023-03-02T20:00:08.654Z,5.50
2023-03-02T20:02:36.996Z,5.30
2023-03-02T20:05:04.461Z,4.87
2023-03-02T20:07:31.801Z,5.30
2023-03-02T20:09:59.133Z,4.70
2023-03-02T20:12:26.424Z,5.10
2023-03-02T20:14:54.823Z,5.30
2023-03-02T20:17:22.160Z,6.67
2023-03-02T20:19:49.836Z,5.10
2023-03-02T20:22:17.095Z,5.63
2023-03-02T20:24:44.688Z,6.30
2023-03-02T20:27:12.666Z,5.90
2023-03-02T20:29:43.026Z,5.40
2023-03-02T20:32:11.052Z,6.47
2023-03-02T20:34:39.409Z,5.30
2023-03-02T20:37:07.005Z,6.10
2023-03-02T20:39:36.366Z,6.10
2023-03-02T20:42:04.710Z,6.30
2023-03-02T20:44:32.427Z,6.47
2023-03-02T20:47:01.155Z,6.53
2023-03-02T20:49:29.961Z,6.90
2023-03-02T20:51:58.552Z,6.80
2023-03-02T20:54:27.505Z,6.33
2023-03-02T20:56:56.328Z,5.57
2023-03-02T20:59:24.592Z,6.17
2023-03-02T21:01:52.238Z,6.20
2023-03-02T21:04:19.630Z,6.03
2023-03-02T21:06:47.653Z,6.17
2023-03-02T21:09:17.282Z,6.57
2023-03-02T21:11:45.191Z,6.43
2023-03-02T21:14:13.969Z,6.47
2023-03-02T21:16:42.048Z,6.13
2023-03-02T21:19:10.910Z,7.57
2023-03-02T21:21:42.070Z,6.70
2023-03-02T21:24:09.819Z,6.20
2023-03-02T21:26:37.146Z,6.23
2023-03-02T21:29:05.295Z,5.60
2023-03-02T21:31:32.961Z,6.30
2023-03-02T21:34:00.621Z,6.30
2023-03-02T21:36:28.366Z,6.43
2023-03-02T21:38:55.841Z,5.77
2023-03-02T21:41:23.663Z,6.00
2023-03-02T21:43:51.551Z,5.90
2023-03-02T21:46:20.531Z,6.17
2023-03-02T21:48:49.357Z,6.40
2023-03-02T21:51:16.879Z,6.30
2023-03-02T21:53:44.446Z,6.10
2023-03-02T21:56:13.355Z,5.90
2023-03-02T21:58:41.834Z,6.30
2023-03-02T22:01:09.259Z,5.50
2023-03-02T22:03:36.591Z,6.30
2023-03-02T22:06:03.988Z,6.00
2023-03-02T22:08:31.533Z,5.37
2023-03-02T22:10:58.859Z,6.10
2023-03-02T22:13:27.622Z,6.00
2023-03-02T22:15:56.627Z,6.80
2023-03-02T22:18:25.731Z,6.80
2023-03-02T22:20:53.098Z,6.90
2023-03-02T22:23:21.902Z,6.40
2023-03-02T22:25:53.705Z,7.03
2023-03-02T22:28:22.570Z,6.77
2023-03-02T22:30:50.677Z,7.10
2023-03-02T22:33:21.917Z,7.50
2023-03-02T22:35:50.357Z,6.93
2023-03-02T22:38:19.278Z,7.30
2023-03-02T22:40:46.680Z,6.67
2023-03-02T22:43:29.318Z,7.93
2023-03-02T22:46:01.102Z,7.27
2023-03-02T22:48:28.795Z,8.20
2023-03-02T22:50:56.128Z,7.30
2023-03-02T22:53:31.266Z,7.03
2023-03-02T22:56:06.382Z,6.73
2023-03-02T22:58:46.527Z,7.90
2023-03-02T23:01:18.345Z,7.70
2023-03-02T23:03:46.272Z,8.30
2023-03-02T23:06:15.075Z,8.17
2023-03-02T23:08:42.486Z,8.07
2023-03-02T23:11:11.406Z,7.40
2023-03-02T23:13:39.391Z,8.73
2023-03-02T23:16:23.282Z,9.00
2023-03-02T23:18:50.716Z,7.20
2023-03-02T23:21:22.207Z,7.60
2023-03-02T23:23:50.308Z,7.67
2023-03-02T23:26:19.105Z,8.50
2023-03-02T23:28:47.683Z,8.27
2023-03-02T23:31:15.292Z,7.90
2023-03-02T23:33:42.872Z,8.63
2023-03-02T23:36:10.337Z,9.77
2023-03-02T23:38:38.776Z,8.47
2023-03-02T23:41:07.380Z,8.20
2023-03-02T23:43:35.857Z,8.03
2023-03-02T23:46:03.185Z,8.33
2023-03-02T23:48:30.551Z,8.63
2023-03-02T23:50:57.805Z,8.57
2023-03-02T23:53:25.323Z,8.70
2023-03-02T23:55:54.118Z,8.70
2023-03-02T23:58:21.616Z,9.27
